Time;durP1;ratioP1;P1;durP2;ratioP2;P2;SDS_P1;SDS_P2;PMS_P1;PMS_P2;Temp;Humidity;BMP_temperature;BMP_pressure;BME280_temperature;BME280_humidity;BME280_pressure;Samples;Min_cycle;Max_cycle;Signal;HPM_P1;HPM_P2
2023/04/26 00:00:37;;;;;;;20.65;10.90;;;;;;;;;;5012883;28;20530;-52
2023/04/26 00:03:03;;;;;;;21.10;10.32;;;;;;;;;;5032024;28;20433;-59
2023/04/26 00:05:29;;;;;;;22.63;9.77;;;;;;;;;;5032174;28;20683;-53
2023/04/26 00:07:55;;;;;;;20.52;9.90;;;;;;;;;;5014546;28;20029;-53
2023/04/26 00:10:22;;;;;;;17.85;9.70;;;;;;;;;;5014420;28;20022;-55
2023/04/26 00:12:47;;;;;;;19.17;10.32;;;;;;;;;;5014599;28;20017;-52
2023/04/26 00:15:13;;;;;;;20.08;9.90;;;;;;;;;;5014965;28;20021;-57
2023/04/26 00:17:39;;;;;;;18.25;10.40;;;;;;;;;;5032364;28;20452;-57
2023/04/26 00:20:08;;;;;;;22.75;10.80;;;;;;;;;;5032217;28;20048;-58
2023/04/26 00:22:34;;;;;;;19.80;10.43;;;;;;;;;;5032181;28;20034;-51
2023/04/26 00:25:00;;;;;;;21.38;11.07;;;;;;;;;;5014047;28;20375;-53
2023/04/26 00:27:26;;;;;;;19.42;10.05;;;;;;;;;;5032054;28;20389;-54
2023/04/26 00:29:52;;;;;;;18.38;9.93;;;;;;;;;;5032036;28;20028;-53
2023/04/26 00:32:18;;;;;;;20.83;10.95;;;;;;;;;;5031747;28;20424;-55
2023/04/26 00:34:44;;;;;;;23.83;11.88;;;;;;;;;;5031678;28;20030;-52
2023/04/26 00:37:10;;;;;;;17.83;10.95;;;;;;;;;;5032120;28;20049;-58
2023/04/26 00:39:36;;;;;;;18.35;10.43;;;;;;;;;;5031987;28;20505;-58
2023/04/26 00:42:02;;;;;;;17.58;11.55;;;;;;;;;;5014276;28;20442;-55
2023/04/26 00:44:28;;;;;;;28.70;12.30;;;;;;;;;;5013884;28;20033;-50
2023/04/26 00:46:54;;;;;;;23.65;10.45;;;;;;;;;;5031868;28;20656;-52
2023/04/26 00:49:22;;;;;;;18.33;10.40;;;;;;;;;;5031917;28;20018;-53
2023/04/26 00:51:48;;;;;;;17.90;11.20;;;;;;;;;;5014020;28;20107;-55
2023/04/26 00:54:15;;;;;;;17.88;11.02;;;;;;;;;;5031750;28;20018;-53
2023/04/26 00:56:41;;;;;;;20.42;11.45;;;;;;;;;;5031773;28;20104;-55
2023/04/26 00:59:07;;;;;;;17.90;10.57;;;;;;;;;;5033060;28;20083;-58
2023/04/26 01:01:34;;;;;;;19.63;10.60;;;;;;;;;;5017651;28;20103;-53
2023/04/26 01:04:00;;;;;;;22.75;11.35;;;;;;;;;;5035406;28;20025;-52
2023/04/26 01:06:33;;;;;;;21.08;11.05;;;;;;;;;;5035290;28;20091;-54
2023/04/26 01:09:02;;;;;;;22.80;12.18;;;;;;;;;;5035187;28;20063;-50
2023/04/26 01:11:28;;;;;;;19.08;11.38;;;;;;;;;;5035131;28;20025;-56
2023/04/26 01:13:55;;;;;;;21.58;10.90;;;;;;;;;;5017571;28;20385;-50
2023/04/26 01:16:22;;;;;;;17.70;11.00;;;;;;;;;;5035794;28;20382;-50
2023/04/26 01:18:52;;;;;;;20.73;11.30;;;;;;;;;;5035484;28;20033;-53
2023/04/26 01:21:21;;;;;;;21.52;11.07;;;;;;;;;;5035170;28;20037;-58
2023/04/26 01:23:51;;;;;;;18.73;10.82;;;;;;;;;;5017094;28;20028;-55
2023/04/26 01:26:17;;;;;;;21.98;11.38;;;;;;;;;;5034928;28;20033;-58
2023/04/26 01:28:43;;;;;;;23.23;10.88;;;;;;;;;;5017140;28;20021;-53
2023/04/26 01:31:09;;;;;;;19.23;10.90;;;;;;;;;;5017100;28;20028;-54
2023/04/26 01:33:35;;;;;;;18.83;11.20;;;;;;;;;;5016946;28;20021;-56
2023/04/26 01:36:01;;;;;;;19.55;11.38;;;;;;;;;;5017049;28;20024;-57
2023/04/26 01:38:27;;;;;;;20.23;11.63;;;;;;;;;;5034646;28;20131;-58
2023/04/26 01:40:53;;;;;;;17.40;10.77;;;;;;;;;;5034741;28;20025;-57
2023/04/26 01:43:20;;;;;;;19.77;11.05;;;;;;;;;;5034361;28;20500;-52
2023/04/26 01:45:49;;;;;;;20.27;11.63;;;;;;;;;;5034768;28;20025;-52
2023/04/26 01:48:15;;;;;;;19.60;11.50;;;;;;;;;;5034722;28;20018;-57
2023/04/26 01:50:41;;;;;;;25.05;13.02;;;;;;;;;;5034445;28;20017;-55
2023/04/26 01:53:07;;;;;;;19.52;11.60;;;;;;;;;;5034307;28;20025;-55
2023/04/26 01:55:33;;;;;;;20.27;11.48;;;;;;;;;;5034610;28;20669;-50
2023/04/26 01:58:00;;;;;;;18.13;11.10;;;;;;;;;;5034493;28;20444;-51
2023/04/26 02:00:27;;;;;;;22.85;12.10;;;;;;;;;;5034339;28;20037;-57
2023/04/26 02:02:56;;;;;;;25.73;14.32;;;;;;;;;;5034198;28;20409;-52
2023/04/26 02:05:23;;;;;;;21.42;11.57;;;;;;;;;;5016304;28;20120;-58
2023/04/26 02:07:49;;;;;;;25.25;12.57;;;;;;;;;;5016575;28;20393;-57
2023/04/26 02:10:15;;;;;;;20.90;11.88;;;;;;;;;;5033267;28;20112;-52
2023/04/26 02:12:41;;;;;;;19.13;12.15;;;;;;;;;;5034102;28;20207;-56
2023/04/26 02:15:08;;;;;;;19.02;11.68;;;;;;;;;;5033974;28;20098;-53
2023/04/26 02:17:34;;;;;;;21.13;12.13;;;;;;;;;;5016419;28;20026;-54
2023/04/26 02:20:00;;;;;;;25.33;12.82;;;;;;;;;;5033993;28;20449;-53
2023/04/26 02:22:26;;;;;;;20.77;12.95;;;;;;;;;;5033891;28;20033;-53
2023/04/26 02:24:52;;;;;;;24.33;12.65;;;;;;;;;;5033678;28;20227;-55
2023/04/26 02:27:18;;;;;;;22.13;12.40;;;;;;;;;;5033675;28;20122;-55
2023/04/26 02:29:47;;;;;;;19.70;12.07;;;;;;;;;;5033792;28;20028;-50
2023/04/26 02:32:13;;;;;;;20.25;12.38;;;;;;;;;;5015832;28;20075;-52
2023/04/26 02:34:39;;;;;;;20.10;12.35;;;;;;;;;;5033356;28;20474;-50
2023/04/26 02:37:06;;;;;;;22.70;13.57;;;;;;;;;;5033755;28;20025;-53
2023/04/26 02:39:32;;;;;;;19.88;11.55;;;;;;;;;;5015649;28;20036;-53
2023/04/26 02:41:58;;;;;;;21.38;12.40;;;;;;;;;;5015675;28;20038;-56
2023/04/26 02:44:24;;;;;;;18.90;12.65;;;;;;;;;;5033502;28;20482;-54
2023/04/26 02:46:50;;;;;;;22.02;13.20;;;;;;;;;;5033865;28;20091;-57
2023/04/26 02:49:16;;;;;;;22.42;13.63;;;;;;;;;;5015516;28;20025;-53
2023/04/26 02:51:42;;;;;;;24.00;12.93;;;;;;;;;;5033086;28;20025;-53
2023/04/26 02:54:08;;;;;;;23.70;12.93;;;;;;;;;;5033363;28;20025;-57
2023/04/26 02:56:34;;;;;;;21.67;12.90;;;;;;;;;;5033370;28;20026;-55
2023/04/26 02:59:00;;;;;;;23.45;12.70;;;;;;;;;;5015715;28;20052;-54
2023/04/26 03:01:26;;;;;;;22.35;13.10;;;;;;;;;;5015292;28;20029;-58
2023/04/26 03:03:54;;;;;;;23.23;13.32;;;;;;;;;;5032867;28;20038;-58
2023/04/26 03:06:20;;;;;;;22.75;13.93;;;;;;;;;;5015358;28;20033;-54
2023/04/26 03:08:46;;;;;;;21.48;12.95;;;;;;;;;;5032985;28;20021;-52
2023/04/26 03:11:12;;;;;;;23.20;13.80;;;;;;;;;;5015084;28;20064;-51
2023/04/26 03:13:38;;;;;;;23.73;15.05;;;;;;;;;;5032498;28;20152;-57
2023/04/26 03:16:04;;;;;;;26.55;13.55;;;;;;;;;;5014932;28;20032;-50
2023/04/26 03:18:30;;;;;;;23.65;13.35;;;;;;;;;;5015163;28;20021;-53
2023/04/26 03:20:56;;;;;;;30.48;14.98;;;;;;;;;;5014935;28;20059;-57
2023/04/26 03:23:24;;;;;;;22.98;13.68;;;;;;;;;;5032083;28;20116;-54
2023/04/26 03:25:50;;;;;;;20.13;12.43;;;;;;;;;;5032487;28;20393;-55
2023/04/26 03:28:16;;;;;;;24.23;13.23;;;;;;;;;;5032600;28;20109;-51
2023/04/26 03:30:42;;;;;;;23.98;13.00;;;;;;;;;;5032328;28;20073;-50
2023/04/26 03:33:08;;;;;;;24.80;13.52;;;;;;;;;;5032312;28;20025;-51
2023/04/26 03:35:34;;;;;;;28.30;13.13;;;;;;;;;;5032358;28;20095;-54
2023/04/26 03:38:00;;;;;;;26.58;14.30;;;;;;;;;;5032553;28;20117;-55
2023/04/26 03:40:26;;;;;;;24.17;14.30;;;;;;;;;;5019126;28;20065;-56
2023/04/26 03:42:52;;;;;;;22.92;13.00;;;;;;;;;;5012628;28;20558;-55
2023/04/26 03:45:18;;;;;;;24.00;13.88;;;;;;;;;;5012291;28;20038;-55
2023/04/26 03:47:44;;;;;;;26.45;13.80;;;;;;;;;;5012420;28;20048;-58
2023/04/26 03:50:10;;;;;;;25.90;13.80;;;;;;;;;;4995076;28;20398;-58
2023/04/26 03:52:36;;;;;;;27.80;14.30;;;;;;;;;;5012200;28;20087;-56
2023/04/26 03:55:02;;;;;;;22.42;13.80;;;;;;;;;;5012209;28;20037;-59
2023/04/26 03:57:28;;;;;;;22.98;14.30;;;;;;;;;;5012140;28;20026;-58
2023/04/26 03:59:55;;;;;;;24.45;15.73;;;;;;;;;;5005450;28;20406;-58
2023/04/26 04:02:21;;;;;;;20.83;14.18;;;;;;;;;;4994415;28;20054;-54
2023/04/26 04:04:47;;;;;;;22.63;14.05;;;;;;;;;;5011821;28;20029;-56
2023/04/26 04:07:13;;;;;;;26.40;14.23;;;;;;;;;;5012313;28;20029;-58
2023/04/26 04:09:39;;;;;;;19.75;13.15;;;;;;;;;;4994675;28;20022;-57
2023/04/26 04:12:05;;;;;;;30.67;14.32;;;;;;;;;;4994599;28;20080;-52
2023/04/26 04:14:31;;;;;;;24.23;14.80;;;;;;;;;;4994026;28;20014;-52
2023/04/26 04:16:58;;;;;;;21.27;13.73;;;;;;;;;;4994483;28;20022;-57
2023/04/26 04:19:24;;;;;;;24.27;13.68;;;;;;;;;;4994312;28;20033;-54
2023/04/26 04:21:50;;;;;;;22.80;14.38;;;;;;;;;;5012027;28;20030;-55
2023/04/26 04:24:16;;;;;;;22.17;14.70;;;;;;;;;;5011672;28;20050;-55
2023/04/26 04:26:42;;;;;;;27.85;15.10;;;;;;;;;;5011676;28;20513;-56
2023/04/26 04:29:08;;;;;;;31.35;15.70;;;;;;;;;;4994538;28;20022;-52
2023/04/26 04:31:38;;;;;;;24.70;14.98;;;;;;;;;;5011736;28;20022;-52
2023/04/26 04:34:04;;;;;;;23.95;14.75;;;;;;;;;;4997165;28;20033;-51
2023/04/26 04:36:32;;;;;;;27.25;14.73;;;;;;;;;;5018572;28;20038;-53
2023/04/26 04:38:58;;;;;;;25.30;13.93;;;;;;;;;;5018315;28;20390;-53
2023/04/26 04:41:24;;;;;;;23.50;14.30;;;;;;;;;;5000383;28;20021;-54
2023/04/26 04:43:50;;;;;;;23.25;14.35;;;;;;;;;;5017710;28;20026;-57
2023/04/26 04:46:16;;;;;;;31.95;15.70;;;;;;;;;;5018355;28;20052;-51
2023/04/26 04:48:43;;;;;;;33.08;15.23;;;;;;;;;;5018244;28;20017;-60
2023/04/26 04:51:09;;;;;;;23.08;14.50;;;;;;;;;;5018279;28;20127;-54
2023/04/26 04:53:35;;;;;;;22.02;14.13;;;;;;;;;;5000889;28;20049;-50
2023/04/26 04:56:01;;;;;;;24.13;14.25;;;;;;;;;;5001530;28;20057;-55
2023/04/26 04:58:27;;;;;;;23.33;15.35;;;;;;;;;;5017974;28;20022;-53
2023/04/26 05:00:54;;;;;;;24.33;14.05;;;;;;;;;;5000178;28;20038;-54
2023/04/26 05:03:20;;;;;;;24.77;14.45;;;;;;;;;;5019019;28;20060;-50
2023/04/26 05:05:46;;;;;;;25.08;14.60;;;;;;;;;;5018078;28;20038;-48
2023/04/26 05:08:12;;;;;;;26.85;14.85;;;;;;;;;;5016152;28;20113;-53
2023/04/26 05:10:38;;;;;;;23.90;14.18;;;;;;;;;;5000171;28;20437;-51
2023/04/26 05:13:04;;;;;;;22.40;13.98;;;;;;;;;;5017918;28;20022;-53
2023/04/26 05:15:30;;;;;;;23.83;13.77;;;;;;;;;;5017987;28;20029;-55
2023/04/26 05:17:58;;;;;;;21.05;13.60;;;;;;;;;;5018192;28;20030;-52
2023/04/26 05:20:24;;;;;;;21.40;13.82;;;;;;;;;;5017884;28;20036;-53
2023/04/26 05:22:50;;;;;;;22.40;13.70;;;;;;;;;;5018848;28;20475;-59
2023/04/26 05:25:16;;;;;;;22.45;13.48;;;;;;;;;;5001401;28;20034;-54
2023/04/26 05:27:44;;;;;;;22.45;14.00;;;;;;;;;;5017951;28;20028;-55
2023/04/26 05:30:10;;;;;;;26.50;14.95;;;;;;;;;;5017580;28;20041;-59
2023/04/26 05:32:36;;;;;;;23.17;13.75;;;;;;;;;;5018205;28;20026;-60
2023/04/26 05:35:02;;;;;;;21.10;14.05;;;;;;;;;;5017317;28;20018;-54
2023/04/26 05:37:28;;;;;;;21.88;14.13;;;;;;;;;;5017965;28;20034;-59
2023/04/26 05:39:54;;;;;;;27.75;14.32;;;;;;;;;;4999918;28;20117;-52
2023/04/26 05:42:20;;;;;;;24.50;14.82;;;;;;;;;;5017083;28;20310;-49
2023/04/26 05:44:46;;;;;;;20.35;13.75;;;;;;;;;;5016729;28;20022;-52
2023/04/26 05:47:12;;;;;;;20.05;13.32;;;;;;;;;;5014609;28;20425;-56
2023/04/26 05:49:38;;;;;;;23.35;14.15;;;;;;;;;;5014153;28;20022;-49
2023/04/26 05:52:04;;;;;;;23.25;14.57;;;;;;;;;;5014201;28;20033;-54
2023/04/26 05:54:30;;;;;;;21.50;13.68;;;;;;;;;;4996617;28;20517;-52
2023/04/26 05:56:56;;;;;;;26.63;13.23;;;;;;;;;;5013683;28;20030;-53
2023/04/26 05:59:22;;;;;;;22.25;14.13;;;;;;;;;;4996097;28;20026;-52
2023/04/26 06:01:48;;;;;;;21.67;14.07;;;;;;;;;;5013655;28;20521;-53
2023/04/26 06:04:14;;;;;;;23.40;13.50;;;;;;;;;;5013719;28;20097;-54
2023/04/26 06:06:41;;;;;;;28.08;13.68;;;;;;;;;;5014263;28;20613;-56
2023/04/26 06:09:07;;;;;;;24.35;14.50;;;;;;;;;;5012909;28;20032;-57
2023/04/26 06:11:33;;;;;;;30.30;16.05;;;;;;;;;;5013822;28;20026;-51
2023/04/26 06:13:59;;;;;;;25.38;15.95;;;;;;;;;;5013112;28;20030;-55
2023/04/26 06:16:25;;;;;;;28.88;16.58;;;;;;;;;;5013674;28;20398;-55
2023/04/26 06:18:51;;;;;;;22.98;14.38;;;;;;;;;;4995882;28;20412;-55
2023/04/26 06:21:17;;;;;;;22.13;13.63;;;;;;;;;;5013518;28;20109;-58
2023/04/26 06:23:43;;;;;;;24.10;13.75;;;;;;;;;;5013347;28;20483;-55
2023/04/26 06:26:09;;;;;;;23.88;14.32;;;;;;;;;;4995861;28;20077;-54
2023/04/26 06:28:35;;;;;;;25.70;15.70;;;;;;;;;;5013487;28;20022;-54
2023/04/26 06:31:01;;;;;;;21.23;12.48;;;;;;;;;;5013238;28;20489;-55
2023/04/26 06:33:27;;;;;;;21.40;13.35;;;;;;;;;;4995432;28;20083;-56
2023/04/26 06:35:53;;;;;;;26.23;14.25;;;;;;;;;;5014826;28;20038;-52
2023/04/26 06:38:19;;;;;;;22.90;14.15;;;;;;;;;;5014337;28;20080;-57
2023/04/26 06:40:45;;;;;;;22.85;14.30;;;;;;;;;;5013855;28;20143;-64
2023/04/26 06:43:12;;;;;;;22.38;12.23;;;;;;;;;;5016342;28;20133;-58
2023/04/26 06:45:37;;;;;;;21.88;13.30;;;;;;;;;;5013478;28;20033;-56
2023/04/26 06:48:04;;;;;;;21.55;12.43;;;;;;;;;;5013395;28;20478;-55
2023/04/26 06:50:30;;;;;;;24.80;12.65;;;;;;;;;;5013251;28;20451;-53
2023/04/26 06:52:56;;;;;;;29.10;13.00;;;;;;;;;;5012883;28;20084;-50
2023/04/26 06:55:22;;;;;;;21.98;12.35;;;;;;;;;;5012523;28;20034;-54
2023/04/26 06:57:49;;;;;;;23.02;11.70;;;;;;;;;;5012249;28;20053;-53
2023/04/26 07:00:17;;;;;;;22.73;11.05;;;;;;;;;;5013032;28;20101;-59
2023/04/26 07:02:42;;;;;;;21.60;10.82;;;;;;;;;;5012615;28;20129;-57
2023/04/26 07:05:09;;;;;;;20.50;11.50;;;;;;;;;;4995214;28;20113;-57
2023/04/26 07:07:35;;;;;;;21.67;10.70;;;;;;;;;;5013278;28;20105;-56
2023/04/26 07:10:01;;;;;;;20.33;12.07;;;;;;;;;;4994995;28;20129;-62
2023/04/26 07:12:27;;;;;;;19.80;11.45;;;;;;;;;;5012998;28;20026;-58
2023/04/26 07:14:52;;;;;;;20.35;10.70;;;;;;;;;;5012757;28;20048;-55
2023/04/26 07:17:20;;;;;;;21.08;10.63;;;;;;;;;;5012737;28;20068;-58
2023/04/26 07:19:46;;;;;;;18.85;10.43;;;;;;;;;;4995303;28;20124;-58
2023/04/26 07:22:12;;;;;;;21.42;10.23;;;;;;;;;;5013561;28;20053;-53
2023/04/26 07:24:38;;;;;;;19.17;9.73;;;;;;;;;;5012246;28;20093;-57
2023/04/26 07:27:04;;;;;;;20.08;10.75;;;;;;;;;;5012590;28;20034;-58
2023/04/26 07:29:30;;;;;;;22.35;10.85;;;;;;;;;;5012561;28;20029;-55
2023/04/26 07:31:57;;;;;;;19.27;10.48;;;;;;;;;;5012272;28;20022;-53
2023/04/26 07:34:23;;;;;;;21.73;10.45;;;;;;;;;;5011676;28;20069;-56
2023/04/26 07:36:49;;;;;;;18.38;9.90;;;;;;;;;;5010509;28;20457;-53
2023/04/26 07:39:15;;;;;;;24.88;10.57;;;;;;;;;;5010545;28;20029;-57
2023/04/26 07:41:41;;;;;;;20.65;9.88;;;;;;;;;;5010550;28;20391;-58
2023/04/26 07:44:07;;;;;;;18.05;9.68;;;;;;;;;;5010167;28;20030;-55
2023/04/26 07:46:33;;;;;;;21.23;9.70;;;;;;;;;;5010140;28;21087;-55
2023/04/26 07:49:00;;;;;;;23.50;9.73;;;;;;;;;;5010594;28;20049;-55
2023/04/26 07:51:26;;;;;;;18.92;9.05;;;;;;;;;;4994167;28;20463;-57
2023/04/26 07:53:54;;;;;;;19.23;10.00;;;;;;;;;;5011728;28;20022;-57
2023/04/26 07:56:20;;;;;;;17.52;9.35;;;;;;;;;;5011707;28;20034;-56
2023/04/26 07:58:46;;;;;;;22.75;9.60;;;;;;;;;;5011750;28;20030;-53
2023/04/26 08:01:12;;;;;;;19.55;9.05;;;;;;;;;;4994017;28;20030;-56
2023/04/26 08:03:38;;;;;;;24.63;10.57;;;;;;;;;;5011491;28;20505;-56
2023/04/26 08:06:04;;;;;;;17.13;9.30;;;;;;;;;;5011532;28;20532;-53
2023/04/26 08:08:32;;;;;;;19.73;8.77;;;;;;;;;;5010862;28;20030;-51
2023/04/26 08:10:58;;;;;;;17.95;9.20;;;;;;;;;;5011340;28;20030;-52
2023/04/26 08:13:24;;;;;;;17.10;8.25;;;;;;;;;;5011116;28;20100;-54
2023/04/26 08:15:50;;;;;;;21.10;9.07;;;;;;;;;;5011990;28;20064;-52
2023/04/26 08:18:16;;;;;;;18.25;8.50;;;;;;;;;;4994088;28;20128;-55
2023/04/26 08:20:42;;;;;;;17.27;9.10;;;;;;;;;;5011832;28;20485;-55
2023/04/26 08:23:08;;;;;;;21.80;9.20;;;;;;;;;;5011533;28;20041;-52
2023/04/26 08:25:34;;;;;;;17.27;8.48;;;;;;;;;;4993971;28;20105;-54
2023/04/26 08:28:01;;;;;;;18.20;9.07;;;;;;;;;;5011619;28;20026;-55
2023/04/26 08:30:27;;;;;;;17.80;8.80;;;;;;;;;;5011740;28;20699;-54
2023/04/26 08:32:53;;;;;;;20.67;9.10;;;;;;;;;;5011332;28;20029;-49
2023/04/26 08:35:20;;;;;;;17.23;8.52;;;;;;;;;;5011272;28;20114;-53
2023/04/26 08:37:46;;;;;;;17.98;8.90;;;;;;;;;;4991890;28;20034;-54
2023/04/26 08:40:13;;;;;;;16.92;8.73;;;;;;;;;;5011177;28;20018;-54
2023/04/26 08:42:43;;;;;;;17.88;8.60;;;;;;;;;;5011035;28;20030;-53
2023/04/26 08:45:12;;;;;;;18.42;8.88;;;;;;;;;;5010731;28;20026;-53
2023/04/26 08:47:40;;;;;;;15.48;8.80;;;;;;;;;;4993587;28;20029;-56
2023/04/26 08:50:08;;;;;;;19.35;8.73;;;;;;;;;;5011432;28;20442;-51
2023/04/26 08:52:34;;;;;;;16.00;8.85;;;;;;;;;;5010760;28;20026;-56
2023/04/26 08:55:02;;;;;;;19.58;9.23;;;;;;;;;;4991573;28;20037;-54
2023/04/26 08:57:32;;;;;;;16.10;9.43;;;;;;;;;;4986649;28;20063;-55
2023/04/26 08:59:58;;;;;;;15.90;9.45;;;;;;;;;;5011091;28;20080;-56
2023/04/26 09:02:24;;;;;;;19.48;9.48;;;;;;;;;;5011075;28;20040;-54
2023/04/26 09:04:50;;;;;;;16.70;8.55;;;;;;;;;;5011469;28;20037;-54
2023/04/26 09:07:32;;;;;;;16.80;8.90;;;;;;;;;;4993925;28;20462;-52
2023/04/26 09:09:59;;;;;;;16.40;9.05;;;;;;;;;;5011108;28;20029;-55
2023/04/26 09:12:26;;;;;;;20.50;10.52;;;;;;;;;;4993563;28;20089;-54
2023/04/26 09:14:52;;;;;;;16.20;9.23;;;;;;;;;;5010774;28;20029;-53
2023/04/26 09:17:24;;;;;;;17.25;9.35;;;;;;;;;;5011941;28;20049;-55
2023/04/26 09:19:50;;;;;;;17.10;8.93;;;;;;;;;;5014047;28;20140;-53
2023/04/26 09:22:35;;;;;;;16.80;9.50;;;;;;;;;;4997664;28;20068;-51
2023/04/26 09:25:03;;;;;;;17.23;10.68;;;;;;;;;;5014610;28;20030;-57
2023/04/26 09:27:32;;;;;;;15.25;8.95;;;;;;;;;;5014361;28;20030;-57
2023/04/26 09:30:01;;;;;;;17.38;9.23;;;;;;;;;;5014450;28;20037;-54
2023/04/26 09:32:42;;;;;;;17.05;9.52;;;;;;;;;;5014438;28;20057;-51
2023/04/26 09:35:08;;;;;;;19.92;10.32;;;;;;;;;;5014296;28;20112;-56
2023/04/26 09:37:34;;;;;;;16.65;9.20;;;;;;;;;;5014325;28;20117;-57
2023/04/26 09:40:00;;;;;;;16.38;9.75;;;;;;;;;;5014262;28;20532;-59
2023/04/26 09:42:26;;;;;;;17.75;8.88;;;;;;;;;;5014132;28;20097;-57
2023/04/26 09:44:53;;;;;;;16.60;8.80;;;;;;;;;;5014142;28;20487;-53
2023/04/26 09:47:21;;;;;;;14.40;8.63;;;;;;;;;;4996338;28;20113;-55
2023/04/26 09:49:51;;;;;;;16.65;9.32;;;;;;;;;;5014387;28;20032;-54
2023/04/26 09:52:17;;;;;;;16.90;9.57;;;;;;;;;;5014912;28;20030;-52
2023/04/26 09:54:48;;;;;;;15.65;9.70;;;;;;;;;;5015123;28;20113;-58
2023/04/26 09:57:14;;;;;;;17.00;9.13;;;;;;;;;;5013765;28;20030;-55
2023/04/26 09:59:42;;;;;;;15.95;9.73;;;;;;;;;;5010147;28;20057;-54
2023/04/26 10:02:10;;;;;;;18.08;9.75;;;;;;;;;;5013901;28;20034;-56
2023/04/26 10:04:36;;;;;;;16.73;9.43;;;;;;;;;;5014108;28;20033;-56
2023/04/26 10:07:04;;;;;;;15.20;9.13;;;;;;;;;;5013468;28;20022;-55
2023/04/26 10:09:30;;;;;;;15.70;9.15;;;;;;;;;;4996138;28;20088;-50
2023/04/26 10:11:56;;;;;;;18.48;9.20;;;;;;;;;;5013392;28;20068;-57
2023/04/26 10:14:23;;;;;;;16.08;9.07;;;;;;;;;;4995830;28;20525;-57
2023/04/26 10:16:49;;;;;;;18.60;9.10;;;;;;;;;;5013581;28;20076;-57
2023/04/26 10:19:15;;;;;;;16.83;9.27;;;;;;;;;;5013259;28;20490;-54
2023/04/26 10:21:42;;;;;;;17.55;9.30;;;;;;;;;;5013170;28;20430;-54
2023/04/26 10:24:09;;;;;;;17.08;9.70;;;;;;;;;;5013133;28;20105;-56
2023/04/26 10:26:53;;;;;;;17.92;9.40;;;;;;;;;;4995559;28;20438;-56
2023/04/26 10:29:22;;;;;;;16.50;9.23;;;;;;;;;;5013082;28;20022;-53
2023/04/26 10:32:00;;;;;;;20.23;9.77;;;;;;;;;;5012065;28;20398;-58
2023/04/26 10:34:26;;;;;;;17.05;8.80;;;;;;;;;;5014044;28;20490;-58
2023/04/26 10:37:10;;;;;;;18.17;9.85;;;;;;;;;;5014097;28;20057;-58
2023/04/26 10:39:38;;;;;;;16.85;9.70;;;;;;;;;;4996398;28;20034;-58
2023/04/26 10:42:39;;;;;;;17.38;9.50;;;;;;;;;;5013502;28;20033;-57
2023/04/26 10:45:31;;;;;;;17.92;9.40;;;;;;;;;;4914242;29;20040;-57
2023/04/26 10:48:19;;;;;;;18.55;9.30;;;;;;;;;;5007350;28;20042;-58
2023/04/26 10:51:20;;;;;;;18.08;9.50;;;;;;;;;;5013380;28;20021;-54
2023/04/26 10:53:46;;;;;;;20.95;10.02;;;;;;;;;;4913915;29;20028;-52
2023/04/26 10:56:32;;;;;;;17.10;10.15;;;;;;;;;;4992901;28;20438;-54
2023/04/26 10:59:08;;;;;;;17.35;10.02;;;;;;;;;;4994799;28;20117;-57
2023/04/26 11:01:37;;;;;;;17.00;10.30;;;;;;;;;;5013687;28;20469;-61
2023/04/26 11:04:08;;;;;;;16.30;9.93;;;;;;;;;;5012116;28;20057;-55
2023/04/26 11:06:50;;;;;;;16.27;9.77;;;;;;;;;;5012582;28;20040;-55
2023/04/26 11:09:38;;;;;;;15.52;9.60;;;;;;;;;;5012532;28;20396;-59
2023/04/26 11:12:05;;;;;;;16.95;9.70;;;;;;;;;;4992747;28;20022;-56
2023/04/26 11:14:31;;;;;;;18.85;9.45;;;;;;;;;;4992514;28;20019;-57
2023/04/26 11:16:57;;;;;;;16.52;9.88;;;;;;;;;;4992795;28;20138;-52
2023/04/26 11:19:23;;;;;;;19.20;10.10;;;;;;;;;;4993481;28;20037;-50
2023/04/26 11:21:49;;;;;;;16.95;9.73;;;;;;;;;;4992972;28;20022;-52
2023/04/26 11:24:15;;;;;;;17.88;10.13;;;;;;;;;;4992390;28;20510;-57
2023/04/26 11:26:41;;;;;;;18.63;10.23;;;;;;;;;;4992514;28;20026;-55
2023/04/26 11:29:09;;;;;;;17.30;9.90;;;;;;;;;;4992665;28;20454;-52
2023/04/26 11:31:35;;;;;;;15.50;9.60;;;;;;;;;;4975340;28;20074;-57
2023/04/26 11:34:04;;;;;;;16.63;9.95;;;;;;;;;;4992414;28;20067;-52
2023/04/26 11:36:31;;;;;;;20.17;10.32;;;;;;;;;;4992233;28;20037;-56
2023/04/26 11:38:57;;;;;;;16.08;10.10;;;;;;;;;;4992756;28;20022;-57
2023/04/26 11:41:23;;;;;;;18.98;10.55;;;;;;;;;;4992157;28;20029;-56
2023/04/26 11:43:49;;;;;;;18.42;10.32;;;;;;;;;;4992050;28;20096;-55
2023/04/26 11:46:15;;;;;;;17.52;10.68;;;;;;;;;;4992577;28;20061;-56
2023/04/26 11:48:41;;;;;;;18.10;10.48;;;;;;;;;;4992506;28;20487;-58
2023/04/26 11:51:09;;;;;;;15.32;9.63;;;;;;;;;;4992648;28;20033;-57
2023/04/26 11:53:36;;;;;;;18.63;10.52;;;;;;;;;;4992256;28;20026;-53
2023/04/26 11:56:02;;;;;;;17.35;10.10;;;;;;;;;;4992651;28;20022;-58
2023/04/26 11:58:31;;;;;;;18.90;10.13;;;;;;;;;;4992585;28;20030;-57
2023/04/26 12:01:00;;;;;;;17.27;10.38;;;;;;;;;;4992465;28;20092;-55
2023/04/26 12:03:31;;;;;;;17.33;10.23;;;;;;;;;;4992181;28;20084;-56
2023/04/26 12:05:57;;;;;;;20.08;10.70;;;;;;;;;;4992870;28;20080;-56
2023/04/26 12:08:23;;;;;;;16.55;10.32;;;;;;;;;;4992522;28;20027;-55
2023/04/26 12:10:49;;;;;;;16.75;9.80;;;;;;;;;;5001115;28;20399;-57
2023/04/26 12:13:16;;;;;;;16.70;10.10;;;;;;;;;;5011534;28;20029;-56
2023/04/26 12:15:42;;;;;;;16.85;9.90;;;;;;;;;;5011726;28;20034;-54
2023/04/26 12:18:09;;;;;;;16.83;9.65;;;;;;;;;;5011648;28;20087;-56
2023/04/26 12:20:36;;;;;;;18.38;10.55;;;;;;;;;;5011404;28;20026;-55
2023/04/26 12:23:08;;;;;;;18.08;9.40;;;;;;;;;;5011191;28;20025;-54
2023/04/26 12:25:36;;;;;;;17.15;9.35;;;;;;;;;;4993638;28;20037;-57
2023/04/26 12:28:03;;;;;;;18.10;10.20;;;;;;;;;;5011478;28;20026;-58
2023/04/26 12:30:30;;;;;;;22.90;10.30;;;;;;;;;;5011053;28;20077;-54
2023/04/26 12:32:56;;;;;;;16.63;9.70;;;;;;;;;;5011137;28;20113;-56
2023/04/26 12:35:23;;;;;;;17.25;10.00;;;;;;;;;;5010984;28;20032;-58
2023/04/26 12:37:51;;;;;;;16.23;9.90;;;;;;;;;;5011049;28;20514;-54
2023/04/26 12:40:18;;;;;;;16.88;9.90;;;;;;;;;;5011954;28;20049;-59
2023/04/26 12:42:45;;;;;;;18.15;10.25;;;;;;;;;;5012041;28;20152;-57
2023/04/26 12:45:11;;;;;;;16.90;9.95;;;;;;;;;;5011860;28;20022;-58
2023/04/26 12:47:37;;;;;;;22.63;10.75;;;;;;;;;;5011562;28;20080;-54
2023/04/26 12:50:04;;;;;;;18.38;10.00;;;;;;;;;;4993496;28;20060;-56
2023/04/26 12:52:31;;;;;;;17.08;10.23;;;;;;;;;;5011360;28;20026;-58
2023/04/26 12:54:57;;;;;;;18.35;10.30;;;;;;;;;;5012259;28;20079;-56
2023/04/26 12:57:23;;;;;;;18.15;10.50;;;;;;;;;;5015190;28;20061;-57
2023/04/26 12:59:49;;;;;;;18.67;9.68;;;;;;;;;;5015225;28;20496;-57
2023/04/26 13:02:15;;;;;;;17.05;9.70;;;;;;;;;;5014907;28;20042;-53
2023/04/26 13:04:41;;;;;;;16.50;9.93;;;;;;;;;;5014836;28;20037;-51
2023/04/26 13:07:07;;;;;;;20.55;10.57;;;;;;;;;;5014939;28;20033;-55
2023/04/26 13:09:33;;;;;;;17.98;10.20;;;;;;;;;;5014493;28;20026;-53
2023/04/26 13:11:59;;;;;;;18.88;9.85;;;;;;;;;;5014541;28;20026;-56
2023/04/26 13:14:25;;;;;;;18.23;9.82;;;;;;;;;;5014724;28;20450;-54
2023/04/26 13:16:51;;;;;;;17.73;10.32;;;;;;;;;;5014571;28;20057;-57
2023/04/26 13:19:17;;;;;;;17.77;10.68;;;;;;;;;;5014776;28;20026;-57
2023/04/26 13:21:43;;;;;;;16.45;9.73;;;;;;;;;;5014419;28;20109;-53
2023/04/26 13:24:09;;;;;;;18.17;10.02;;;;;;;;;;5014290;28;20068;-56
2023/04/26 13:26:36;;;;;;;16.52;10.32;;;;;;;;;;5014273;28;20025;-54
2023/04/26 13:29:03;;;;;;;19.10;10.30;;;;;;;;;;5014841;28;20052;-57
2023/04/26 13:31:29;;;;;;;21.55;10.27;;;;;;;;;;5014232;28;20014;-57
2023/04/26 13:33:55;;;;;;;24.13;10.57;;;;;;;;;;5014251;28;20029;-57
2023/04/26 13:36:21;;;;;;;16.52;10.05;;;;;;;;;;5014440;28;20033;-57
2023/04/26 13:38:47;;;;;;;17.30;10.10;;;;;;;;;;5014840;28;20022;-55
2023/04/26 13:41:13;;;;;;;19.20;10.90;;;;;;;;;;5014394;28;20124;-53
2023/04/26 13:43:39;;;;;;;16.00;10.60;;;;;;;;;;5014213;28;20029;-58
2023/04/26 13:46:06;;;;;;;17.15;10.50;;;;;;;;;;5014288;28;20071;-57
2023/04/26 13:48:32;;;;;;;20.90;11.10;;;;;;;;;;5014466;28;20101;-54
2023/04/26 13:50:58;;;;;;;16.33;10.57;;;;;;;;;;5011869;28;20576;-54
2023/04/26 13:53:24;;;;;;;18.48;10.85;;;;;;;;;;5012909;28;20053;-56
2023/04/26 13:55:51;;;;;;;17.00;10.43;;;;;;;;;;5014030;28;20032;-55
2023/04/26 13:58:16;;;;;;;17.73;10.23;;;;;;;;;;4996354;28;20038;-53
2023/04/26 14:00:42;;;;;;;16.85;10.00;;;;;;;;;;4996674;28;20390;-59
2023/04/26 14:03:09;;;;;;;17.58;10.55;;;;;;;;;;4994488;28;20034;-59
2023/04/26 14:05:35;;;;;;;18.13;10.20;;;;;;;;;;4995623;28;20026;-56
2023/04/26 14:08:01;;;;;;;16.87;10.77;;;;;;;;;;4663870;28;10000034;-59
2023/04/26 14:10:27;;;;;;;16.80;9.57;;;;;;;;;;5010037;28;20045;-57
2023/04/26 14:12:55;;;;;;;17.38;10.20;;;;;;;;;;4992978;28;20037;-56
2023/04/26 14:15:21;;;;;;;16.30;9.93;;;;;;;;;;5010793;28;20026;-58
2023/04/26 14:17:47;;;;;;;16.00;9.95;;;;;;;;;;5010919;28;20026;-58
2023/04/26 14:20:13;;;;;;;18.85;10.23;;;;;;;;;;4993171;28;20121;-60